createdAt,value
2018-03-16T00:01:22.272Z,4.50
2018-03-16T00:03:49.730Z,4.50
2018-03-16T00:06:17.153Z,4.50
2018-03-16T00:08:44.565Z,4.50
2018-03-16T00:11:11.986Z,4.50
2018-03-16T00:13:39.524Z,4.50
2018-03-16T00:16:06.983Z,4.50
2018-03-16T00:18:34.410Z,4.50
2018-03-16T00:21:01.818Z,4.50
2018-03-16T00:23:29.302Z,4.60
2018-03-16T00:25:56.718Z,4.50
2018-03-16T00:28:24.222Z,4.60
2018-03-16T00:30:51.641Z,4.60
2018-03-16T00:33:19.158Z,4.50
2018-03-16T00:35:46.577Z,4.60
2018-03-16T00:38:14.002Z,4.60
2018-03-16T00:40:41.422Z,4.60
2018-03-16T00:43:09.626Z,4.50
2018-03-16T00:45:38.717Z,4.50
2018-03-16T00:48:06.328Z,4.50
2018-03-16T00:50:33.742Z,4.50
2018-03-16T00:53:02.666Z,4.50
2018-03-16T00:55:30.873Z,4.50
2018-03-16T00:57:59.050Z,4.50
2018-03-16T01:00:27.251Z,4.50
2018-03-16T01:02:54.728Z,4.50
2018-03-16T01:05:22.192Z,4.50
2018-03-16T01:07:49.594Z,4.50
2018-03-16T01:10:17.020Z,4.40
2018-03-16T01:12:44.502Z,4.40
2018-03-16T01:15:11.922Z,4.40
2018-03-16T01:17:40.209Z,4.40
2018-03-16T01:20:07.633Z,4.40
2018-03-16T01:22:35.054Z,4.40
2018-03-16T01:25:03.280Z,4.30
2018-03-16T01:27:30.684Z,4.30
2018-03-16T01:29:58.136Z,4.30
2018-03-16T01:32:25.582Z,4.30
2018-03-16T01:34:53.002Z,4.30
2018-03-16T01:37:20.409Z,4.30
2018-03-16T01:39:47.825Z,4.30
2018-03-16T01:42:15.329Z,4.30
2018-03-16T01:44:42.754Z,4.30
2018-03-16T01:47:10.930Z,4.40
2018-03-16T01:49:40.058Z,4.40
2018-03-16T01:52:07.526Z,4.40
2018-03-16T01:54:34.937Z,4.40
2018-03-16T01:57:02.362Z,4.30
2018-03-16T01:59:29.780Z,4.40
2018-03-16T02:01:57.206Z,4.40
2018-03-16T02:04:29.584Z,4.40
2018-03-16T02:06:57.003Z,4.40
2018-03-16T02:09:25.186Z,4.40
2018-03-16T02:11:52.594Z,4.30
2018-03-16T02:14:20.771Z,4.20
2018-03-16T02:16:48.953Z,4.10
2018-03-16T02:19:17.119Z,4.20
2018-03-16T02:21:44.545Z,4.20
2018-03-16T02:24:11.971Z,4.30
2018-03-16T02:26:41.070Z,4.20
2018-03-16T02:29:08.503Z,4.10
2018-03-16T02:31:35.913Z,4.10
2018-03-16T02:34:04.103Z,4.10
2018-03-16T02:36:32.282Z,4.10
2018-03-16T02:38:59.785Z,4.10
2018-03-16T02:41:27.254Z,4.10
2018-03-16T02:43:54.699Z,4.10
2018-03-16T02:46:22.166Z,4.00
2018-03-16T02:48:49.569Z,4.00
2018-03-16T02:51:17.075Z,4.00
2018-03-16T02:53:44.543Z,4.00
2018-03-16T02:56:11.954Z,4.00
2018-03-16T02:58:39.485Z,4.00
2018-03-16T03:01:06.891Z,4.00
2018-03-16T03:03:34.310Z,3.90
2018-03-16T03:06:01.719Z,3.90
2018-03-16T03:08:29.132Z,3.90
2018-03-16T03:10:57.433Z,3.80
2018-03-16T03:13:24.852Z,3.80
2018-03-16T03:15:52.273Z,3.80
2018-03-16T03:18:19.750Z,3.80
2018-03-16T03:20:47.175Z,3.80
2018-03-16T03:23:14.575Z,3.90
2018-03-16T03:25:41.999Z,3.80
2018-03-16T03:28:09.405Z,3.80
2018-03-16T03:30:36.834Z,3.90
2018-03-16T03:33:04.248Z,3.90
2018-03-16T03:35:31.663Z,3.90
2018-03-16T03:37:59.087Z,3.90
2018-03-16T03:40:26.501Z,3.80
2018-03-16T03:42:54.023Z,3.80
2018-03-16T03:45:21.438Z,3.80
2018-03-16T03:47:48.849Z,3.80
2018-03-16T03:50:16.282Z,3.90
2018-03-16T03:52:43.710Z,3.80
2018-03-16T03:55:11.195Z,3.90
2018-03-16T03:57:38.738Z,3.90
2018-03-16T04:00:06.202Z,3.90
2018-03-16T04:02:33.670Z,3.90
2018-03-16T04:05:01.093Z,3.80
2018-03-16T04:07:28.652Z,3.80
2018-03-16T04:09:56.070Z,3.80
2018-03-16T04:12:24.265Z,3.80
2018-03-16T04:14:51.804Z,3.70
2018-03-16T04:17:19.197Z,3.80
2018-03-16T04:19:47.389Z,3.70
2018-03-16T04:22:14.834Z,3.70
2018-03-16T04:24:43.665Z,3.80
2018-03-16T04:27:11.106Z,3.80
2018-03-16T04:29:39.325Z,3.80
2018-03-16T04:32:06.745Z,3.80
2018-03-16T04:34:34.270Z,3.90
2018-03-16T04:37:01.686Z,3.80
2018-03-16T04:39:29.115Z,3.80
2018-03-16T04:41:56.548Z,3.80
2018-03-16T04:44:24.010Z,3.70
2018-03-16T04:46:51.462Z,3.80
2018-03-16T04:49:18.881Z,3.80
2018-03-16T04:51:47.066Z,3.70
2018-03-16T04:54:15.298Z,3.70
2018-03-16T04:56:44.260Z,3.70
2018-03-16T04:59:11.678Z,3.70
2018-03-16T05:01:39.091Z,3.60
2018-03-16T05:04:06.515Z,3.70
2018-03-16T05:06:33.971Z,3.60
2018-03-16T05:09:01.386Z,3.60
2018-03-16T05:11:28.898Z,3.60
2018-03-16T05:13:56.315Z,3.60
2018-03-16T05:16:23.729Z,3.60
2018-03-16T05:18:51.141Z,3.60
2018-03-16T05:21:18.555Z,3.60
2018-03-16T05:23:46.762Z,3.50
2018-03-16T05:26:14.177Z,3.50
2018-03-16T05:28:41.605Z,3.50
2018-03-16T05:31:09.018Z,3.50
2018-03-16T05:33:36.438Z,3.50
2018-03-16T05:36:03.851Z,3.50
2018-03-16T05:38:31.361Z,3.40
2018-03-16T05:40:58.783Z,3.50
2018-03-16T05:43:26.252Z,3.30
2018-03-16T05:45:53.629Z,3.30
2018-03-16T05:48:21.052Z,3.30
2018-03-16T05:50:48.482Z,3.30
2018-03-16T05:53:16.696Z,3.30
2018-03-16T05:55:45.478Z,3.30
2018-03-16T05:58:14.598Z,3.30
2018-03-16T06:00:42.112Z,3.30
2018-03-16T06:03:09.538Z,3.20
2018-03-16T06:05:37.014Z,3.20
2018-03-16T06:08:04.477Z,3.20
2018-03-16T06:10:31.895Z,3.20
2018-03-16T06:12:59.311Z,3.20
2018-03-16T06:15:26.778Z,3.20
2018-03-16T06:17:54.250Z,3.20
2018-03-16T06:20:21.671Z,3.20
2018-03-16T06:22:49.082Z,3.20
2018-03-16T06:25:16.503Z,3.20
2018-03-16T06:27:43.928Z,3.10
2018-03-16T06:30:11.358Z,3.10
2018-03-16T06:32:38.768Z,3.10
2018-03-16T06:35:06.234Z,3.10
2018-03-16T06:37:33.641Z,3.10
2018-03-16T06:40:01.067Z,3.00
2018-03-16T06:42:28.471Z,3.00
2018-03-16T06:44:56.163Z,3.00
2018-03-16T06:47:23.406Z,2.90
2018-03-16T06:49:50.839Z,2.90
2018-03-16T06:52:18.300Z,3.00
2018-03-16T06:54:46.669Z,2.90
2018-03-16T06:57:15.801Z,2.80
2018-03-16T06:59:43.213Z,2.80
2018-03-16T07:02:10.642Z,2.80
2018-03-16T07:04:38.038Z,2.80
2018-03-16T07:07:05.474Z,2.70
2018-03-16T07:09:32.953Z,2.80
2018-03-16T07:12:00.374Z,2.90
2018-03-16T07:14:27.782Z,2.90
2018-03-16T07:16:55.244Z,2.90
2018-03-16T07:19:22.653Z,2.80
2018-03-16T07:21:50.072Z,2.70
2018-03-16T07:24:17.558Z,2.70
2018-03-16T07:26:44.990Z,2.70
2018-03-16T07:29:13.184Z,2.70
2018-03-16T07:31:40.588Z,2.70
2018-03-16T07:34:07.998Z,2.80
2018-03-16T07:36:35.435Z,2.70
2018-03-16T07:39:02.856Z,2.80
2018-03-16T07:41:30.260Z,2.70
2018-03-16T07:43:57.670Z,2.80
2018-03-16T07:46:25.077Z,2.80
2018-03-16T07:48:52.531Z,2.60
2018-03-16T07:51:19.946Z,2.70
2018-03-16T07:53:48.121Z,2.70
2018-03-16T07:56:17.248Z,2.60
2018-03-16T07:58:44.660Z,2.60
2018-03-16T08:01:12.078Z,2.50
2018-03-16T08:03:39.518Z,2.50
2018-03-16T08:06:06.934Z,2.50
2018-03-16T08:08:34.387Z,2.50
2018-03-16T08:11:01.794Z,2.60
2018-03-16T08:13:29.204Z,2.50
2018-03-16T08:15:57.408Z,2.40
2018-03-16T08:18:24.827Z,2.30
2018-03-16T08:20:52.450Z,2.30
2018-03-16T08:23:19.866Z,2.20
2018-03-16T08:25:48.487Z,2.10
2018-03-16T08:28:15.963Z,2.10
2018-03-16T08:30:43.321Z,2.10
2018-03-16T08:33:10.792Z,2.20
2018-03-16T08:35:39.014Z,2.20
2018-03-16T08:38:06.413Z,2.20
2018-03-16T08:40:33.843Z,2.10
2018-03-16T08:43:01.246Z,2.10
2018-03-16T08:45:28.676Z,2.00
2018-03-16T08:47:56.092Z,1.90
2018-03-16T08:50:23.505Z,2.00
2018-03-16T08:52:50.983Z,1.90
2018-03-16T08:55:18.393Z,1.90
2018-03-16T08:57:45.816Z,1.90
2018-03-16T09:00:13.214Z,1.80
2018-03-16T09:02:40.651Z,1.80
2018-03-16T09:05:08.120Z,1.80
2018-03-16T09:07:35.607Z,1.70
2018-03-16T09:10:03.067Z,1.70
2018-03-16T09:12:30.528Z,1.70
2018-03-16T09:14:57.994Z,1.60
2018-03-16T09:17:25.402Z,1.40
2018-03-16T09:19:52.839Z,1.40
2018-03-16T09:22:20.240Z,1.40
2018-03-16T09:24:47.658Z,1.30
2018-03-16T09:27:15.074Z,1.40
2018-03-16T09:29:42.520Z,1.50
2018-03-16T09:32:09.932Z,1.40
2018-03-16T09:34:38.160Z,1.40
2018-03-16T09:37:05.566Z,1.40
2018-03-16T09:39:32.986Z,1.40
2018-03-16T09:42:00.473Z,1.30
2018-03-16T09:44:27.883Z,1.30
2018-03-16T09:46:56.115Z,1.20
2018-03-16T09:49:23.599Z,1.10
2018-03-16T09:51:51.062Z,1.20
2018-03-16T09:54:19.449Z,1.10
2018-03-16T09:56:47.606Z,1.10
2018-03-16T09:59:15.786Z,1.10
2018-03-16T10:01:43.212Z,1.10
2018-03-16T10:04:10.630Z,1.10
2018-03-16T10:06:38.821Z,1.20
2018-03-16T10:09:07.015Z,1.20
2018-03-16T10:11:34.432Z,1.20
2018-03-16T10:14:01.853Z,1.20
2018-03-16T10:16:29.273Z,1.20
2018-03-16T10:18:56.687Z,1.10
2018-03-16T10:21:24.111Z,1.20
2018-03-16T10:23:51.542Z,1.20
2018-03-16T10:26:19.043Z,1.10
2018-03-16T10:28:46.456Z,1.10
2018-03-16T10:31:14.673Z,1.00
2018-03-16T10:33:42.082Z,1.00
2018-03-16T10:36:09.490Z,1.00
2018-03-16T10:38:37.064Z,0.90
2018-03-16T10:41:05.225Z,1.00
2018-03-16T10:43:33.410Z,1.10
2018-03-16T10:46:01.625Z,1.20
2018-03-16T10:48:29.806Z,1.20
2018-03-16T10:50:57.219Z,1.20
2018-03-16T10:53:24.643Z,1.30
2018-03-16T10:55:52.067Z,1.20
2018-03-16T10:58:19.685Z,1.20
2018-03-16T11:00:53.713Z,1.30
2018-03-16T11:03:21.122Z,1.20
2018-03-16T11:05:54.478Z,1.20
2018-03-16T11:08:27.518Z,1.10
2018-03-16T11:10:54.937Z,1.10
2018-03-16T11:13:22.358Z,1.10
2018-03-16T11:15:49.786Z,1.20
2018-03-16T11:18:17.206Z,1.20
2018-03-16T11:20:44.740Z,1.10
2018-03-16T11:23:12.145Z,1.10
2018-03-16T11:25:39.563Z,1.20
2018-03-16T11:28:06.976Z,1.20
2018-03-16T11:30:34.486Z,1.20
2018-03-16T11:33:01.967Z,1.10
2018-03-16T11:35:29.393Z,1.20
2018-03-16T11:37:56.802Z,1.30
2018-03-16T11:40:24.215Z,1.40
2018-03-16T11:42:52.740Z,1.50
2018-03-16T11:45:21.876Z,1.50
2018-03-16T11:47:50.035Z,1.50
2018-03-16T11:50:18.211Z,1.50
2018-03-16T11:52:46.434Z,1.40
2018-03-16T11:55:13.907Z,1.40
2018-03-16T11:57:41.357Z,1.40
2018-03-16T12:00:08.787Z,1.40
2018-03-16T12:02:36.303Z,1.40
2018-03-16T12:05:03.714Z,1.40
2018-03-16T12:07:31.139Z,1.30
2018-03-16T12:09:58.609Z,1.40
2018-03-16T12:12:26.014Z,1.40
2018-03-16T12:14:53.425Z,1.30
2018-03-16T12:17:22.527Z,1.10
2018-03-16T12:19:50.716Z,1.10
2018-03-16T12:22:18.925Z,1.10
2018-03-16T12:24:46.395Z,1.10
2018-03-16T12:27:13.879Z,1.10
2018-03-16T12:29:41.283Z,1.00
2018-03-16T12:32:08.722Z,1.10
2018-03-16T12:34:36.142Z,1.20
2018-03-16T12:37:04.326Z,1.20
2018-03-16T12:39:32.497Z,1.20
2018-03-16T12:41:59.917Z,1.20
2018-03-16T12:44:27.362Z,1.30
2018-03-16T12:46:54.783Z,1.40
2018-03-16T12:49:22.209Z,1.40
2018-03-16T12:51:49.694Z,1.30
2018-03-16T12:54:17.098Z,1.10
2018-03-16T12:56:45.288Z,1.00
2018-03-16T12:59:12.791Z,1.00
2018-03-16T13:01:40.227Z,1.10
2018-03-16T13:04:07.621Z,1.20
2018-03-16T13:06:35.038Z,1.20
2018-03-16T13:09:02.499Z,1.20
2018-03-16T13:11:29.890Z,1.10
2018-03-16T13:13:57.317Z,1.10
2018-03-16T13:16:24.724Z,1.00
2018-03-16T13:18:52.151Z,1.10
2018-03-16T13:21:19.623Z,1.00
2018-03-16T13:23:47.042Z,1.00
2018-03-16T13:26:14.585Z,1.10
2018-03-16T13:28:42.030Z,1.10
2018-03-16T13:31:09.461Z,1.00
2018-03-16T13:33:36.962Z,1.00
2018-03-16T13:36:05.109Z,1.00
2018-03-16T13:38:33.290Z,1.00
2018-03-16T13:41:00.706Z,1.00
2018-03-16T13:43:28.138Z,0.90
2018-03-16T13:45:56.351Z,0.90
2018-03-16T13:48:24.910Z,0.90
2018-03-16T13:50:52.330Z,0.90
2018-03-16T13:53:19.809Z,0.90
2018-03-16T13:55:47.219Z,0.80
2018-03-16T13:58:14.639Z,0.90
2018-03-16T14:00:42.078Z,1.00
2018-03-16T14:03:09.518Z,0.90
2018-03-16T14:05:36.913Z,0.80
2018-03-16T14:08:04.329Z,0.80
2018-03-16T14:10:31.740Z,0.80
2018-03-16T14:12:59.925Z,0.90
2018-03-16T14:15:28.097Z,0.90
2018-03-16T14:17:55.612Z,0.90
2018-03-16T14:20:23.184Z,0.90
2018-03-16T14:22:50.612Z,0.90
2018-03-16T14:25:18.828Z,0.70
2018-03-16T14:27:47.001Z,0.60
2018-03-16T14:30:14.431Z,0.60
2018-03-16T14:32:41.873Z,0.60
2018-03-16T14:35:09.412Z,0.50
2018-03-16T14:37:36.818Z,0.40
2018-03-16T14:40:04.254Z,0.30
2018-03-16T14:42:31.667Z,0.40
2018-03-16T14:44:59.191Z,0.40
2018-03-16T14:47:26.664Z,0.40
2018-03-16T14:49:55.741Z,0.40
2018-03-16T14:52:23.946Z,0.40
2018-03-16T14:54:51.527Z,0.40
2018-03-16T14:57:19.708Z,0.40
2018-03-16T14:59:47.116Z,0.30
2018-03-16T15:02:14.554Z,0.40
2018-03-16T15:04:42.008Z,0.40
2018-03-16T15:07:09.589Z,0.40
2018-03-16T15:09:37.787Z,0.20
2018-03-16T15:12:05.190Z,0.20
2018-03-16T15:14:32.701Z,0.20
2018-03-16T15:17:01.022Z,0.20
2018-03-16T15:19:28.465Z,0.20
2018-03-16T15:21:55.870Z,0.20
2018-03-16T15:24:23.307Z,0.20
2018-03-16T15:26:50.707Z,0.20
2018-03-16T15:29:18.122Z,0.20
2018-03-16T15:31:46.314Z,0.10
2018-03-16T15:34:13.791Z,0.10
2018-03-16T15:36:41.206Z,0.10
2018-03-16T15:39:08.647Z,0.00
2018-03-16T15:41:36.047Z,0.10
2018-03-16T15:44:03.572Z,0.10
2018-03-16T15:46:31.037Z,0.10
2018-03-16T15:48:59.190Z,0.10
2018-03-16T15:51:26.682Z,0.10
2018-03-16T15:53:54.107Z,0.00
2018-03-16T15:56:21.522Z,0.00
2018-03-16T15:58:48.997Z,0.10
2018-03-16T16:01:16.407Z,0.10
2018-03-16T16:03:43.857Z,0.10
2018-03-16T16:06:11.246Z,0.10
2018-03-16T16:08:38.768Z,0.10
2018-03-16T16:11:06.182Z,0.10
2018-03-16T16:13:33.592Z,0.00
2018-03-16T16:16:01.082Z,-0.10
2018-03-16T16:18:28.490Z,0.00
2018-03-16T16:20:57.407Z,0.10
2018-03-16T16:23:24.910Z,0.10
2018-03-16T16:25:52.390Z,0.10
2018-03-16T16:28:20.562Z,0.00
2018-03-16T16:30:47.975Z,0.00
2018-03-16T16:33:15.407Z,0.00
2018-03-16T16:35:42.839Z,0.00
2018-03-16T16:38:11.069Z,-0.10
2018-03-16T16:40:38.522Z,-0.10
2018-03-16T16:43:05.936Z,-0.10
2018-03-16T16:45:33.364Z,-0.10
2018-03-16T16:48:00.936Z,-0.10
2018-03-16T16:50:28.402Z,-0.10
2018-03-16T16:52:56.758Z,-0.10
2018-03-16T16:55:24.316Z,-0.10
2018-03-16T16:57:51.842Z,0.00
2018-03-16T17:00:19.262Z,0.00
2018-03-16T17:02:46.682Z,0.10
2018-03-16T17:05:14.087Z,0.10
2018-03-16T17:07:41.602Z,0.00
2018-03-16T17:10:09.079Z,0.00
2018-03-16T17:12:36.487Z,0.00
2018-03-16T17:15:03.894Z,0.00
2018-03-16T17:17:32.088Z,-0.10
2018-03-16T17:20:00.254Z,-0.20
2018-03-16T17:22:28.433Z,-0.20
2018-03-16T17:24:55.851Z,-0.30
2018-03-16T17:27:23.311Z,-0.30
2018-03-16T17:29:50.722Z,-0.30
2018-03-16T17:32:24.174Z,-0.30
2018-03-16T17:34:45.574Z,-0.40
2018-03-16T17:37:13.090Z,-0.40
2018-03-16T17:39:40.541Z,-0.40
2018-03-16T17:42:08.732Z,-0.30
2018-03-16T17:44:36.146Z,-0.30
2018-03-16T17:47:03.567Z,-0.30
2018-03-16T17:49:31.059Z,-0.30
2018-03-16T17:51:58.475Z,-0.40
2018-03-16T17:54:27.586Z,-0.40
2018-03-16T17:56:55.769Z,-0.50
2018-03-16T17:59:23.956Z,-0.40
2018-03-16T18:01:52.144Z,-0.40
2018-03-16T18:04:20.354Z,-0.50
2018-03-16T18:06:47.770Z,-0.50
2018-03-16T18:09:15.225Z,-0.50
2018-03-16T18:11:42.666Z,-0.60
2018-03-16T18:14:10.084Z,-0.50
2018-03-16T18:16:37.502Z,-0.60
2018-03-16T18:19:04.962Z,-0.60
2018-03-16T18:21:32.378Z,-0.60
2018-03-16T18:23:59.805Z,-0.60
2018-03-16T18:26:28.670Z,-0.50
2018-03-16T18:28:56.178Z,-0.60
2018-03-16T18:31:23.606Z,-0.50
2018-03-16T18:33:51.030Z,-0.60
2018-03-16T18:36:18.454Z,-0.60
2018-03-16T18:38:46.667Z,-0.70
2018-03-16T18:41:14.082Z,-0.70
2018-03-16T18:43:41.523Z,-0.70
2018-03-16T18:46:08.961Z,-0.60
2018-03-16T18:48:37.112Z,-0.50
2018-03-16T18:51:04.549Z,-0.50
2018-03-16T18:53:31.950Z,-0.50
2018-03-16T18:55:59.382Z,-0.50
2018-03-16T18:58:26.797Z,-0.50
2018-03-16T19:00:54.984Z,-0.70
2018-03-16T19:03:22.385Z,-0.70
2018-03-16T19:05:49.798Z,-0.70
2018-03-16T19:08:17.217Z,-0.60
2018-03-16T19:10:44.627Z,-0.60
2018-03-16T19:13:12.051Z,-0.60
2018-03-16T19:15:39.466Z,-0.60
2018-03-16T19:18:06.873Z,-0.50
2018-03-16T19:20:34.295Z,-0.50
2018-03-16T19:23:01.704Z,-0.50
2018-03-16T19:25:29.878Z,-0.50
2018-03-16T19:27:58.973Z,-0.50
2018-03-16T19:30:26.402Z,-0.50
2018-03-16T19:32:53.960Z,-0.50
2018-03-16T19:35:21.346Z,-0.50
2018-03-16T19:37:48.804Z,-0.50
2018-03-16T19:40:16.227Z,-0.50
2018-03-16T19:42:43.732Z,-0.50
2018-03-16T19:45:11.146Z,-0.60
2018-03-16T19:47:38.558Z,-0.70
2018-03-16T19:50:05.997Z,-0.60
2018-03-16T19:52:34.224Z,-0.70
2018-03-16T19:55:01.659Z,-0.70
2018-03-16T19:57:29.836Z,-0.70
2018-03-16T19:59:57.242Z,-0.70
2018-03-16T20:02:24.666Z,-0.70
2018-03-16T20:04:52.077Z,-0.70
2018-03-16T20:07:19.534Z,-0.70
2018-03-16T20:09:47.002Z,-0.70
2018-03-16T20:12:14.480Z,-0.80
2018-03-16T20:14:41.910Z,-0.80
2018-03-16T20:17:10.217Z,-0.70
2018-03-16T20:19:37.694Z,-0.80
2018-03-16T20:22:05.117Z,-0.70
2018-03-16T20:24:32.525Z,-0.80
2018-03-16T20:27:00.712Z,-0.70
2018-03-16T20:29:29.050Z,-0.70
2018-03-16T20:31:56.457Z,-0.80
2018-03-16T20:34:24.735Z,-0.80
2018-03-16T20:36:52.935Z,-0.80
2018-03-16T20:39:21.146Z,-0.80
2018-03-16T20:41:48.572Z,-0.80
2018-03-16T20:44:15.993Z,-0.90
2018-03-16T20:46:43.464Z,-0.80
2018-03-16T20:49:10.877Z,-0.80
2018-03-16T20:51:38.302Z,-0.80
2018-03-16T20:54:05.711Z,-0.80
2018-03-16T20:56:33.117Z,-0.90
2018-03-16T20:59:00.583Z,-1.00
2018-03-16T21:01:28.060Z,-1.00
2018-03-16T21:03:55.474Z,-1.10
2018-03-16T21:06:23.022Z,-1.20
2018-03-16T21:08:50.422Z,-1.20
2018-03-16T21:11:18.615Z,-1.20
2018-03-16T21:13:46.061Z,-1.30
2018-03-16T21:16:13.461Z,-1.20
2018-03-16T21:18:41.681Z,-1.30
2018-03-16T21:21:09.087Z,-1.30
2018-03-16T21:23:36.599Z,-1.20
2018-03-16T21:26:04.018Z,-1.20
2018-03-16T21:28:31.435Z,-1.10
2018-03-16T21:31:00.404Z,-1.20
2018-03-16T21:33:30.278Z,-1.30
2018-03-16T21:35:57.743Z,-1.30
2018-03-16T21:38:25.162Z,-1.30
2018-03-16T21:40:52.561Z,-1.30
2018-03-16T21:43:20.763Z,-1.50
2018-03-16T21:45:48.182Z,-1.50
2018-03-16T21:48:15.703Z,-1.50
2018-03-16T21:50:43.186Z,-1.60
2018-03-16T21:53:10.692Z,-1.70
2018-03-16T21:55:38.106Z,-1.70
2018-03-16T21:58:05.526Z,-1.60
2018-03-16T22:00:32.948Z,-1.70
2018-03-16T22:03:00.350Z,-1.70
2018-03-16T22:05:27.770Z,-1.70
2018-03-16T22:07:55.282Z,-1.70
2018-03-16T22:10:22.718Z,-1.70
2018-03-16T22:12:50.119Z,-1.70
2018-03-16T22:15:17.546Z,-1.70
2018-03-16T22:17:44.982Z,-1.70
2018-03-16T22:20:12.470Z,-1.70
2018-03-16T22:22:40.668Z,-1.70
2018-03-16T22:25:08.142Z,-1.80
2018-03-16T22:27:35.563Z,-1.60
2018-03-16T22:30:02.983Z,-1.70
2018-03-16T22:32:30.390Z,-1.70
2018-03-16T22:34:57.894Z,-1.80
2018-03-16T22:37:26.103Z,-1.70
2018-03-16T22:39:53.536Z,-1.70
2018-03-16T22:42:20.944Z,-1.60
2018-03-16T22:44:48.419Z,-1.70
2018-03-16T22:47:15.883Z,-1.90
2018-03-16T22:49:43.695Z,-1.90
2018-03-16T22:52:11.115Z,-2.00
2018-03-16T22:54:39.289Z,-1.90
2018-03-16T22:57:07.474Z,-2.00
2018-03-16T22:59:35.646Z,-2.10
2018-03-16T23:02:03.145Z,-2.10
2018-03-16T23:04:30.552Z,-2.10
2018-03-16T23:06:57.964Z,-2.00
2018-03-16T23:09:26.155Z,-2.10
2018-03-16T23:11:54.326Z,-2.20
2018-03-16T23:14:22.533Z,-2.20
2018-03-16T23:16:50.006Z,-2.20
2018-03-16T23:19:18.278Z,-2.20
2018-03-16T23:21:46.491Z,-2.20
2018-03-16T23:24:13.996Z,-2.20
2018-03-16T23:26:41.401Z,-2.20
2018-03-16T23:29:09.610Z,-2.10
2018-03-16T23:31:37.066Z,-2.10
2018-03-16T23:34:05.247Z,-2.20
2018-03-16T23:36:33.488Z,-2.20
2018-03-16T23:39:01.714Z,-2.20
2018-03-16T23:41:30.815Z,-2.10
2018-03-16T23:43:58.230Z,-2.10
2018-03-16T23:46:25.646Z,-2.00
2018-03-16T23:48:53.071Z,-2.10
2018-03-16T23:51:20.474Z,-2.20
2018-03-16T23:53:47.892Z,-2.30
2018-03-16T23:56:15.318Z,-2.40
2018-03-16T23:58:42.798Z,-2.40
